createdAt,value
2019-01-24T00:02:05.984Z,51.80
2019-01-24T00:04:35.874Z,59.20
2019-01-24T00:07:05.837Z,55.33
2019-01-24T00:09:35.675Z,50.33
2019-01-24T00:12:05.610Z,54.83
2019-01-24T00:14:35.736Z,61.50
2019-01-24T00:17:05.659Z,58.60
2019-01-24T00:19:35.517Z,60.53
2019-01-24T00:22:05.863Z,62.90
2019-01-24T00:24:35.781Z,56.93
2019-01-24T00:27:05.743Z,52.43
2019-01-24T00:29:35.609Z,61.13
2019-01-24T00:32:05.543Z,61.07
2019-01-24T00:34:35.418Z,55.63
2019-01-24T00:37:05.814Z,57.53
2019-01-24T00:39:35.639Z,56.67
2019-01-24T00:42:05.666Z,55.13
2019-01-24T00:44:35.746Z,51.23
2019-01-24T00:47:05.854Z,58.07
2019-01-24T00:49:35.721Z,55.20
2019-01-24T00:52:06.512Z,59.07
2019-01-24T00:54:36.357Z,63.27
2019-01-24T00:57:06.412Z,57.40
2019-01-24T00:59:36.535Z,54.77
2019-01-24T01:02:06.514Z,52.97
2019-01-24T01:04:36.409Z,58.70
2019-01-24T01:07:07.101Z,54.37
2019-01-24T01:09:37.002Z,55.97
2019-01-24T01:12:07.512Z,58.30
2019-01-24T01:14:37.377Z,54.07
2019-01-24T01:17:07.384Z,51.20
2019-01-24T01:19:37.464Z,59.37
2019-01-24T01:22:07.511Z,58.57
2019-01-24T01:24:37.757Z,59.20
2019-01-24T01:27:07.920Z,63.47
2019-01-24T01:29:37.762Z,54.23
2019-01-24T01:32:07.675Z,54.47
2019-01-24T01:34:37.544Z,59.33
2019-01-24T01:37:07.596Z,55.47
2019-01-24T01:39:37.473Z,52.77
2019-01-24T01:42:07.424Z,69.90
2019-01-24T01:44:37.284Z,61.37
2019-01-24T01:47:07.232Z,55.93
2019-01-24T01:49:37.365Z,61.03
2019-01-24T01:52:07.249Z,69.87
2019-01-24T01:54:37.118Z,52.00
2019-01-24T01:57:07.051Z,64.00
2019-01-24T01:59:36.909Z,56.17
2019-01-24T02:02:06.914Z,61.20
2019-01-24T02:04:42.715Z,62.57
2019-01-24T02:07:08.952Z,56.57
2019-01-24T02:09:38.831Z,59.63
2019-01-24T02:12:08.721Z,54.50
2019-01-24T02:14:38.596Z,56.90
2019-01-24T02:17:08.449Z,60.40
2019-01-24T02:19:38.310Z,52.13
2019-01-24T02:22:48.185Z,57.90
2019-01-24T02:25:18.523Z,57.63
2019-01-24T02:27:48.638Z,57.77
2019-01-24T02:30:25.687Z,58.63
2019-01-24T02:32:55.927Z,51.90
2019-01-24T02:35:26.149Z,59.83
2019-01-24T02:37:56.351Z,58.57
2019-01-24T02:40:26.295Z,55.37
2019-01-24T02:42:56.200Z,57.80
2019-01-24T02:45:26.749Z,56.27
2019-01-24T02:47:56.698Z,55.27
2019-01-24T02:50:26.606Z,59.83
2019-01-24T02:52:56.466Z,57.30
2019-01-24T02:55:26.661Z,62.20
2019-01-24T02:57:56.590Z,58.90
2019-01-24T03:00:27.083Z,58.97
2019-01-24T03:02:56.998Z,53.23
2019-01-24T03:05:26.979Z,58.37
2019-01-24T03:07:56.956Z,55.50
2019-01-24T03:10:27.153Z,63.13
2019-01-24T03:12:57.131Z,53.83
2019-01-24T03:15:27.313Z,54.80
2019-01-24T03:17:57.197Z,56.83
2019-01-24T03:20:27.316Z,57.37
2019-01-24T03:22:57.440Z,58.60
2019-01-24T03:25:27.657Z,57.43
2019-01-24T03:27:57.808Z,57.17
2019-01-24T03:30:27.927Z,58.53
2019-01-24T03:32:58.577Z,60.53
2019-01-24T03:35:28.714Z,60.80
2019-01-24T03:37:58.892Z,53.30
2019-01-24T03:40:28.769Z,54.90
2019-01-24T03:42:59.155Z,52.37
2019-01-24T03:45:29.029Z,54.90
2019-01-24T03:47:58.896Z,54.57
2019-01-24T03:50:29.661Z,58.40
2019-01-24T03:53:00.019Z,51.03
2019-01-24T03:55:30.003Z,56.07
2019-01-24T03:57:59.927Z,57.27
2019-01-24T04:00:30.105Z,53.23
2019-01-24T04:03:00.244Z,62.00
2019-01-24T04:05:30.149Z,55.70
2019-01-24T04:08:00.539Z,53.63
2019-01-24T04:10:30.458Z,56.20
2019-01-24T04:13:00.360Z,57.73
2019-01-24T04:15:30.251Z,55.60
2019-01-24T04:18:00.438Z,51.87
2019-01-24T04:20:30.533Z,59.30
2019-01-24T04:23:00.770Z,53.37
2019-01-24T04:25:30.683Z,51.50
2019-01-24T04:28:00.564Z,55.73
2019-01-24T04:30:30.791Z,59.73
2019-01-24T04:33:00.665Z,55.93
2019-01-24T04:35:30.820Z,51.80
2019-01-24T04:38:00.690Z,56.73
2019-01-24T04:40:30.926Z,51.47
2019-01-24T04:43:00.812Z,51.90
2019-01-24T04:45:31.040Z,59.27
2019-01-24T04:48:00.986Z,45.77
2019-01-24T04:50:30.975Z,50.83
2019-01-24T04:53:01.427Z,49.13
2019-01-24T04:55:31.605Z,51.00
2019-01-24T04:58:01.830Z,59.40
2019-01-24T05:00:32.719Z,53.40
2019-01-24T05:03:02.677Z,52.83
2019-01-24T05:05:32.870Z,49.57
2019-01-24T05:08:03.076Z,45.53
2019-01-24T05:10:33.109Z,50.00
2019-01-24T05:13:03.545Z,50.60
2019-01-24T05:15:36.593Z,50.17
2019-01-24T05:18:06.856Z,47.30
2019-01-24T05:20:37.089Z,48.90
2019-01-24T05:23:08.721Z,47.83
2019-01-24T05:25:41.599Z,51.50
2019-01-24T05:28:18.492Z,47.10
2019-01-24T05:30:50.153Z,49.13
2019-01-24T05:33:25.164Z,45.57
2019-01-24T05:35:55.545Z,47.93
2019-01-24T05:38:25.734Z,47.43
2019-01-24T05:40:55.975Z,51.60
2019-01-24T05:43:25.912Z,49.10
2019-01-24T05:45:55.869Z,50.13
2019-01-24T05:48:26.577Z,51.03
2019-01-24T05:50:57.058Z,45.73
2019-01-24T05:53:27.567Z,44.17
2019-01-24T05:55:57.575Z,43.97
2019-01-24T05:58:27.743Z,43.30
2019-01-24T06:00:58.373Z,45.50
2019-01-24T06:03:28.432Z,47.70
2019-01-24T06:05:58.924Z,45.73
2019-01-24T06:08:29.116Z,48.80
2019-01-24T06:10:59.345Z,49.00
2019-01-24T06:13:29.276Z,47.63
2019-01-24T06:15:59.231Z,51.37
2019-01-24T06:18:29.253Z,47.40
2019-01-24T06:20:59.431Z,51.73
2019-01-24T06:23:30.158Z,42.10
2019-01-24T06:26:00.306Z,44.17
2019-01-24T06:28:30.521Z,49.97
2019-01-24T06:31:00.706Z,46.00
2019-01-24T06:33:31.153Z,46.97
2019-01-24T06:36:01.314Z,43.00
2019-01-24T06:38:31.551Z,49.20
2019-01-24T06:41:01.492Z,52.63
2019-01-24T06:43:31.447Z,50.63
2019-01-24T06:46:01.915Z,46.20
2019-01-24T06:48:32.136Z,40.90
2019-01-24T06:51:02.387Z,45.93
2019-01-24T06:53:32.401Z,43.63
2019-01-24T06:56:02.574Z,48.57
2019-01-24T06:58:33.057Z,45.17
2019-01-24T07:01:03.495Z,46.97
2019-01-24T07:03:33.439Z,41.03
2019-01-24T07:06:04.038Z,47.37
2019-01-24T07:08:34.455Z,42.27
2019-01-24T07:11:04.557Z,44.97
2019-01-24T07:13:35.016Z,46.27
2019-01-24T07:16:05.025Z,46.23
2019-01-24T07:18:35.240Z,41.53
2019-01-24T07:21:05.365Z,49.80
2019-01-24T07:23:35.477Z,46.03
2019-01-24T07:26:05.845Z,46.53
2019-01-24T07:28:35.795Z,43.77
2019-01-24T07:31:05.800Z,42.03
2019-01-24T07:33:36.003Z,48.80
2019-01-24T07:36:06.414Z,47.90
2019-01-24T07:38:36.368Z,46.33
2019-01-24T07:41:06.434Z,51.40
2019-01-24T07:43:36.638Z,41.17
2019-01-24T07:46:07.257Z,45.50
2019-01-24T07:48:37.222Z,42.80
2019-01-24T07:51:07.505Z,40.17
2019-01-24T07:53:37.949Z,44.03
2019-01-24T07:56:08.278Z,45.20
2019-01-24T07:58:38.228Z,44.83
2019-01-24T08:01:08.210Z,48.73
2019-01-24T08:03:38.162Z,46.60
2019-01-24T08:06:09.211Z,43.97
2019-01-24T08:08:39.378Z,44.50
2019-01-24T08:11:10.173Z,44.67
2019-01-24T08:13:40.386Z,44.17
2019-01-24T08:16:10.315Z,42.83
2019-01-24T08:18:40.246Z,45.23
2019-01-24T08:21:10.185Z,47.90
2019-01-24T08:23:40.125Z,46.30
2019-01-24T08:26:10.667Z,49.40
2019-01-24T08:28:40.861Z,49.63
2019-01-24T08:31:10.811Z,36.83
2019-01-24T08:33:41.362Z,44.90
2019-01-24T08:36:15.530Z,40.67
2019-01-24T08:38:43.537Z,41.40
2019-01-24T08:41:13.794Z,43.23
2019-01-24T08:43:44.212Z,39.93
2019-01-24T08:46:14.509Z,40.77
2019-01-24T08:48:44.682Z,40.30
2019-01-24T08:51:14.647Z,38.97
2019-01-24T08:53:45.185Z,43.23
2019-01-24T08:56:15.597Z,46.37
2019-01-24T08:58:45.546Z,45.67
2019-01-24T09:01:15.714Z,46.30
2019-01-24T09:03:45.655Z,43.53
2019-01-24T09:06:22.383Z,45.20
2019-01-24T09:08:47.855Z,39.87
2019-01-24T09:11:18.096Z,41.90
2019-01-24T09:13:48.382Z,45.20
2019-01-24T09:16:18.303Z,42.93
2019-01-24T09:18:48.523Z,43.00
2019-01-24T09:21:18.552Z,42.33
2019-01-24T09:23:48.512Z,44.47
2019-01-24T09:26:18.430Z,50.60
2019-01-24T09:28:48.378Z,47.90
2019-01-24T09:31:18.568Z,44.70
2019-01-24T09:33:48.957Z,47.73
2019-01-24T09:36:19.347Z,43.20
2019-01-24T09:38:49.588Z,43.63
2019-01-24T09:41:19.531Z,40.03
2019-01-24T09:43:49.717Z,44.20
2019-01-24T09:46:19.895Z,46.10
2019-01-24T09:48:50.185Z,42.77
2019-01-24T09:51:20.163Z,40.57
2019-01-24T09:53:50.714Z,40.23
2019-01-24T09:56:20.800Z,43.20
2019-01-24T09:58:51.466Z,44.20
2019-01-24T10:01:21.421Z,40.73
2019-01-24T10:03:51.532Z,40.33
2019-01-24T10:06:21.547Z,37.60
2019-01-24T10:08:51.710Z,41.73
2019-01-24T10:11:23.544Z,40.83
2019-01-24T10:13:54.344Z,42.07
2019-01-24T10:16:24.371Z,37.90
2019-01-24T10:18:54.276Z,45.07
2019-01-24T10:21:24.326Z,39.27
2019-01-24T10:23:54.345Z,43.60
2019-01-24T10:26:24.699Z,44.33
2019-01-24T10:28:55.038Z,49.50
2019-01-24T10:31:25.274Z,44.80
2019-01-24T10:33:55.238Z,41.77
2019-01-24T10:36:25.239Z,41.20
2019-01-24T10:38:55.140Z,45.37
2019-01-24T10:41:25.138Z,41.23
2019-01-24T10:43:55.067Z,47.53
2019-01-24T10:46:25.009Z,48.97
2019-01-24T10:48:54.958Z,43.80
2019-01-24T10:51:25.138Z,46.90
2019-01-24T10:53:55.131Z,41.40
2019-01-24T10:56:25.095Z,54.17
2019-01-24T10:58:55.129Z,51.70
2019-01-24T11:01:25.426Z,49.37
2019-01-24T11:03:56.199Z,53.47
2019-01-24T11:06:26.634Z,49.70
2019-01-24T11:08:56.863Z,48.30
2019-01-24T11:11:27.104Z,48.93
2019-01-24T11:13:57.239Z,50.63
2019-01-24T11:16:27.212Z,47.60
2019-01-24T11:18:57.161Z,48.37
2019-01-24T11:21:27.194Z,49.60
2019-01-24T11:23:57.204Z,51.87
2019-01-24T11:26:27.450Z,50.57
2019-01-24T11:28:57.642Z,46.97
2019-01-24T11:31:27.862Z,51.43
2019-01-24T11:33:57.924Z,44.23
2019-01-24T11:36:28.157Z,42.70
2019-01-24T11:38:58.114Z,45.43
2019-01-24T11:41:28.284Z,44.10
2019-01-24T11:43:58.522Z,48.73
2019-01-24T11:46:28.742Z,44.83
2019-01-24T11:48:59.833Z,43.57
2019-01-24T11:51:29.781Z,54.80
2019-01-24T11:53:59.763Z,49.43
2019-01-24T11:56:29.931Z,47.43
2019-01-24T11:59:00.361Z,45.80
2019-01-24T12:01:30.597Z,46.87
2019-01-24T12:04:01.028Z,51.67
2019-01-24T12:06:31.281Z,55.17
2019-01-24T12:09:01.470Z,50.83
2019-01-24T12:11:31.662Z,44.80
2019-01-24T12:14:01.654Z,49.20
2019-01-24T12:16:31.887Z,57.87
2019-01-24T12:19:02.171Z,45.43
2019-01-24T12:21:32.095Z,45.27
2019-01-24T12:24:02.283Z,45.97
2019-01-24T12:26:32.177Z,47.67
2019-01-24T12:29:02.514Z,49.30
2019-01-24T12:31:32.674Z,48.97
2019-01-24T12:34:03.135Z,48.30
2019-01-24T12:36:33.112Z,46.90
2019-01-24T12:39:03.556Z,49.17
2019-01-24T12:41:33.501Z,62.23
2019-01-24T12:44:03.650Z,51.23
2019-01-24T12:46:33.593Z,56.23
2019-01-24T12:49:03.849Z,45.07
2019-01-24T12:51:33.906Z,48.60
2019-01-24T12:54:03.940Z,48.53
2019-01-24T12:56:34.127Z,47.93
2019-01-24T12:59:04.182Z,52.83
2019-01-24T13:01:34.031Z,49.10
2019-01-24T13:04:04.186Z,44.07
2019-01-24T13:06:34.066Z,49.03
2019-01-24T13:09:05.804Z,45.93
2019-01-24T13:11:36.033Z,46.70
2019-01-24T13:14:06.145Z,55.80
2019-01-24T13:16:36.024Z,51.50
2019-01-24T13:19:06.062Z,55.90
2019-01-24T13:21:35.946Z,48.00
2019-01-24T13:24:06.297Z,44.37
2019-01-24T13:26:36.410Z,48.23
2019-01-24T13:29:06.392Z,45.40
2019-01-24T13:31:36.275Z,47.23
2019-01-24T13:34:06.223Z,54.60
2019-01-24T13:36:36.102Z,58.50
2019-01-24T13:39:11.132Z,58.93
2019-01-24T13:41:42.606Z,54.60
2019-01-24T13:44:12.663Z,52.53
2019-01-24T13:46:42.764Z,59.13
2019-01-24T13:49:12.875Z,59.60
2019-01-24T13:51:42.794Z,54.77
2019-01-24T13:54:12.696Z,59.10
2019-01-24T13:56:42.703Z,55.00
2019-01-24T13:59:12.654Z,50.03
2019-01-24T14:01:43.172Z,47.40
2019-01-24T14:04:25.849Z,50.90
2019-01-24T14:06:56.192Z,46.40
2019-01-24T14:09:26.110Z,54.30
2019-01-24T14:11:56.270Z,48.83
2019-01-24T14:14:26.399Z,55.63
2019-01-24T14:16:56.355Z,51.70
2019-01-24T14:19:26.255Z,46.70
2019-01-24T14:21:56.383Z,50.93
2019-01-24T14:24:26.763Z,54.40
2019-01-24T14:26:57.233Z,58.87
2019-01-24T14:29:27.139Z,56.33
2019-01-24T14:31:57.064Z,52.63
2019-01-24T14:34:27.243Z,54.53
2019-01-24T14:36:57.256Z,61.10
2019-01-24T14:39:27.938Z,61.47
2019-01-24T14:41:57.837Z,50.90
2019-01-24T14:44:27.727Z,48.03
2019-01-24T14:46:57.847Z,49.77
2019-01-24T14:49:28.150Z,55.67
2019-01-24T14:51:58.266Z,56.30
2019-01-24T14:54:28.202Z,46.67
2019-01-24T14:56:58.160Z,55.53
2019-01-24T14:59:28.092Z,52.50
2019-01-24T15:01:57.994Z,51.23
2019-01-24T15:04:27.957Z,52.37
2019-01-24T15:06:57.970Z,51.50
2019-01-24T15:09:28.170Z,51.80
2019-01-24T15:11:58.912Z,54.23
2019-01-24T15:14:28.803Z,56.20
2019-01-24T15:16:58.712Z,50.00
2019-01-24T15:19:28.588Z,50.73
2019-01-24T15:21:58.744Z,47.70
2019-01-24T15:24:28.667Z,48.13
2019-01-24T15:26:59.095Z,48.83
2019-01-24T15:29:29.280Z,51.20
2019-01-24T15:31:59.484Z,50.00
2019-01-24T15:34:29.413Z,45.17
2019-01-24T15:36:59.529Z,50.47
2019-01-24T15:39:29.440Z,50.23
2019-01-24T15:41:59.449Z,48.37
2019-01-24T15:44:29.642Z,51.10
2019-01-24T15:46:59.612Z,55.07
2019-01-24T15:49:29.554Z,49.30
2019-01-24T15:51:59.714Z,48.03
2019-01-24T15:54:30.111Z,53.90
2019-01-24T15:57:00.049Z,51.83
2019-01-24T15:59:29.936Z,51.80
2019-01-24T16:01:59.873Z,49.60
2019-01-24T16:04:29.796Z,52.70
2019-01-24T16:06:59.745Z,52.23
2019-01-24T16:09:29.910Z,50.77
2019-01-24T16:12:00.101Z,51.20
2019-01-24T16:14:30.307Z,46.13
2019-01-24T16:17:00.590Z,50.10
2019-01-24T16:19:30.548Z,50.23
2019-01-24T16:22:00.905Z,46.70
2019-01-24T16:24:30.916Z,47.50
2019-01-24T16:27:01.488Z,46.80
2019-01-24T16:29:31.398Z,48.60
2019-01-24T16:32:01.658Z,51.07
2019-01-24T16:34:32.106Z,48.93
2019-01-24T16:37:02.093Z,58.60
2019-01-24T16:39:32.213Z,51.43
2019-01-24T16:42:02.401Z,58.43
2019-01-24T16:44:32.352Z,64.80
2019-01-24T16:47:02.269Z,52.70
2019-01-24T16:49:32.344Z,58.27
2019-01-24T16:52:02.260Z,52.57
2019-01-24T16:54:32.847Z,66.00
2019-01-24T16:57:07.619Z,57.87
2019-01-24T16:59:38.086Z,54.10
2019-01-24T17:02:08.145Z,58.23
2019-01-24T17:04:38.073Z,60.50
2019-01-24T17:07:07.973Z,58.40
2019-01-24T17:09:38.147Z,57.07
2019-01-24T17:12:08.618Z,60.40
2019-01-24T17:14:38.905Z,59.20
2019-01-24T17:17:09.335Z,47.57
2019-01-24T17:19:39.594Z,52.17
2019-01-24T17:22:09.845Z,59.70
2019-01-24T17:24:40.094Z,54.67
2019-01-24T17:27:10.208Z,59.83
2019-01-24T17:29:40.148Z,59.53
2019-01-24T17:32:10.139Z,55.30
2019-01-24T17:34:40.132Z,54.33
2019-01-24T17:37:10.236Z,53.73
2019-01-24T17:39:40.541Z,59.40
2019-01-24T17:42:10.462Z,56.73
2019-01-24T17:44:41.031Z,56.30
2019-01-24T17:47:11.233Z,53.10
2019-01-24T17:49:41.572Z,55.10
2019-01-24T17:52:11.694Z,48.40
2019-01-24T17:54:41.941Z,58.43
2019-01-24T17:57:14.206Z,50.23
2019-01-24T17:59:44.157Z,59.20
2019-01-24T18:02:14.264Z,52.60
2019-01-24T18:04:44.271Z,47.90
2019-01-24T18:07:14.226Z,56.10
2019-01-24T18:09:44.251Z,51.53
2019-01-24T18:12:14.599Z,56.20
2019-01-24T18:14:44.557Z,58.90
2019-01-24T18:17:14.834Z,51.73
2019-01-24T18:19:44.924Z,54.53
2019-01-24T18:22:15.145Z,54.80
2019-01-24T18:24:45.227Z,55.43
2019-01-24T18:27:15.525Z,53.53
2019-01-24T18:29:46.003Z,53.53
2019-01-24T18:32:16.085Z,55.97
2019-01-24T18:34:46.053Z,54.50
2019-01-24T18:37:16.496Z,52.90
2019-01-24T18:39:46.751Z,51.60
2019-01-24T18:42:17.008Z,55.67
2019-01-24T18:44:47.128Z,56.13
2019-01-24T18:47:17.362Z,52.90
2019-01-24T18:49:47.459Z,56.30
2019-01-24T18:52:17.793Z,53.10
2019-01-24T18:54:48.126Z,54.37
2019-01-24T18:57:18.130Z,58.13
2019-01-24T18:59:48.371Z,57.63
2019-01-24T19:02:18.440Z,58.47
2019-01-24T19:04:48.983Z,55.93
2019-01-24T19:07:19.220Z,54.43
2019-01-24T19:09:49.339Z,67.67
2019-01-24T19:12:19.332Z,57.00
2019-01-24T19:14:49.800Z,55.73
2019-01-24T19:17:19.775Z,62.00
2019-01-24T19:19:49.726Z,59.73
2019-01-24T19:22:19.657Z,57.43
2019-01-24T19:24:49.868Z,60.27
2019-01-24T19:27:20.020Z,57.43
2019-01-24T19:29:49.980Z,55.03
2019-01-24T19:32:20.198Z,52.97
2019-01-24T19:34:50.408Z,55.07
2019-01-24T19:37:20.381Z,54.90
2019-01-24T19:39:50.340Z,55.50
2019-01-24T19:42:20.633Z,55.93
2019-01-24T19:44:50.614Z,57.40
2019-01-24T19:47:20.627Z,55.33
2019-01-24T19:49:50.853Z,62.30
2019-01-24T19:52:20.826Z,51.70
2019-01-24T19:54:51.076Z,54.33
2019-01-24T19:57:21.966Z,50.03
2019-01-24T19:59:52.185Z,57.37
2019-01-24T20:02:22.178Z,60.90
2019-01-24T20:04:52.691Z,53.23
2019-01-24T20:07:23.101Z,60.77
2019-01-24T20:09:53.263Z,57.13
2019-01-24T20:12:23.541Z,60.60
2019-01-24T20:14:53.547Z,55.33
2019-01-24T20:17:24.017Z,54.20
2019-01-24T20:19:54.313Z,58.80
2019-01-24T20:22:24.447Z,56.13
2019-01-24T20:24:54.804Z,66.50
2019-01-24T20:27:26.000Z,58.10
2019-01-24T20:29:56.208Z,55.67
2019-01-24T20:32:27.419Z,53.70
2019-01-24T20:34:57.920Z,64.57
2019-01-24T20:37:28.061Z,59.20
2019-01-24T20:39:59.893Z,63.00
2019-01-24T20:42:29.931Z,55.10
2019-01-24T20:45:00.209Z,56.80
2019-01-24T20:47:30.746Z,64.90
2019-01-24T20:50:01.194Z,54.83
2019-01-24T20:52:31.759Z,61.53
2019-01-24T20:55:01.978Z,54.00
2019-01-24T20:57:31.945Z,61.00
2019-01-24T21:00:01.892Z,55.27
2019-01-24T21:02:32.339Z,58.43
2019-01-24T21:05:02.630Z,52.40
2019-01-24T21:07:32.814Z,59.10
2019-01-24T21:10:02.739Z,60.00
2019-01-24T21:12:33.271Z,65.33
2019-01-24T21:15:03.300Z,54.63
2019-01-24T21:17:33.361Z,61.50
2019-01-24T21:20:03.300Z,58.87
2019-01-24T21:22:33.569Z,55.47
2019-01-24T21:25:03.643Z,53.10
2019-01-24T21:27:33.679Z,56.10
2019-01-24T21:30:03.818Z,49.63
2019-01-24T21:32:33.748Z,58.47
2019-01-24T21:35:04.022Z,52.40
2019-01-24T21:37:35.099Z,54.33
2019-01-24T21:40:08.278Z,55.87
2019-01-24T21:42:38.205Z,53.63
2019-01-24T21:45:10.367Z,59.17
2019-01-24T21:47:40.608Z,60.30
2019-01-24T21:50:14.081Z,57.07
2019-01-24T21:52:44.316Z,59.20
2019-01-24T21:55:15.416Z,55.00
2019-01-24T21:57:45.511Z,59.10
2019-01-24T22:00:18.512Z,60.40
2019-01-24T22:02:48.799Z,60.90
2019-01-24T22:05:19.711Z,57.73
2019-01-24T22:07:50.175Z,55.00
2019-01-24T22:10:26.750Z,57.70
2019-01-24T22:12:56.907Z,56.70
2019-01-24T22:15:29.720Z,56.40
2019-01-24T22:18:00.422Z,58.93
2019-01-24T22:20:30.975Z,59.60
2019-01-24T22:23:01.178Z,57.17
2019-01-24T22:25:33.919Z,57.80
2019-01-24T22:28:04.254Z,56.13
2019-01-24T22:30:40.811Z,53.63
2019-01-24T22:33:11.301Z,51.77
2019-01-24T22:35:41.416Z,55.17
2019-01-24T22:38:11.799Z,59.03
2019-01-24T22:40:41.746Z,53.10
2019-01-24T22:43:11.948Z,57.07
2019-01-24T22:45:42.144Z,54.70
2019-01-24T22:48:12.165Z,57.87
2019-01-24T22:50:42.545Z,59.97
2019-01-24T22:53:13.027Z,52.07
2019-01-24T22:55:42.991Z,66.00
2019-01-24T22:58:13.328Z,56.77
2019-01-24T23:01:31.184Z,59.33
2019-01-24T23:04:08.198Z,61.30
2019-01-24T23:06:38.563Z,62.30
2019-01-24T23:09:11.757Z,58.40
2019-01-24T23:11:42.068Z,59.57
2019-01-24T23:14:13.430Z,57.20
2019-01-24T23:16:43.435Z,54.93
2019-01-24T23:19:13.517Z,56.87
2019-01-24T23:21:43.681Z,61.23
2019-01-24T23:24:13.591Z,59.83
2019-01-24T23:26:43.478Z,68.57
2019-01-24T23:29:13.330Z,61.20
2019-01-24T23:31:43.757Z,62.40
2019-01-24T23:34:13.910Z,63.33
2019-01-24T23:36:43.731Z,63.70
2019-01-24T23:39:13.773Z,61.53
2019-01-24T23:41:44.148Z,61.43
2019-01-24T23:44:14.062Z,63.13
2019-01-24T23:46:43.977Z,64.20
2019-01-24T23:49:13.877Z,56.93
2019-01-24T23:51:43.748Z,60.70
2019-01-24T23:54:13.897Z,60.77
2019-01-24T23:56:43.803Z,63.07
2019-01-24T23:59:13.719Z,58.27
